createdAt,value
2023-01-10T00:01:02.472Z,77.22762
2023-01-10T00:06:03.418Z,75.68235
2023-01-10T00:11:04.427Z,75.7223
2023-01-10T00:16:05.498Z,75.2171
2023-01-10T00:21:06.460Z,75.39217
2023-01-10T00:26:07.377Z,75.70608
2023-01-10T00:31:08.411Z,75.66691
2023-01-10T00:36:09.441Z,75.50798
2023-01-10T00:41:10.492Z,74.99088
2023-01-10T00:46:11.567Z,74.27634
2023-01-10T00:51:12.554Z,73.76124
2023-01-10T00:56:13.486Z,73.32972
2023-01-10T01:01:14.553Z,72.11189
2023-01-10T01:06:15.525Z,71.32069
2023-01-10T01:11:16.438Z,70.18489
2023-01-10T01:16:17.458Z,69.14221
2023-01-10T01:21:18.494Z,67.72517
2023-01-10T01:26:19.428Z,66.68908
2023-01-10T01:31:20.404Z,65.58053
2023-01-10T01:36:21.579Z,64.02767
2023-01-10T01:41:22.613Z,63.41153
2023-01-10T01:46:23.624Z,63.87555
2023-01-10T01:51:24.663Z,62.81718
2023-01-10T01:56:37.024Z,61.96536
2023-01-10T02:01:38.056Z,61.53711
2023-01-10T02:06:39.029Z,61.32494
2023-01-10T02:11:40.103Z,60.62325
2023-01-10T02:16:41.013Z,60.24046
2023-01-10T02:21:41.965Z,59.94162
2023-01-10T02:26:42.880Z,59.62241
2023-01-10T02:31:43.882Z,58.54031
2023-01-10T02:36:44.823Z,58.29353
2023-01-10T02:41:45.738Z,57.9743
2023-01-10T02:46:46.840Z,57.85858
2023-01-10T02:51:47.832Z,57.47395
2023-01-10T02:56:48.718Z,57.15566
2023-01-10T03:01:49.781Z,56.49488
2023-01-10T03:06:50.819Z,55.92954
2023-01-10T03:11:51.781Z,54.8342
2023-01-10T03:16:52.706Z,53.73835
2023-01-10T03:21:53.657Z,52.23305
2023-01-10T03:26:54.626Z,51.26328
2023-01-10T03:31:55.550Z,50.73592
2023-01-10T03:36:56.502Z,50.41136
2023-01-10T03:41:57.457Z,49.94191
2023-01-10T03:46:58.338Z,49.47131
2023-01-10T03:51:59.404Z,48.60875
2023-01-10T03:57:02.609Z,47.27769
2023-01-10T04:02:04.340Z,45.9965
2023-01-10T04:07:05.397Z,45.05529
2023-01-10T04:12:06.394Z,44.30754
2023-01-10T04:17:07.283Z,42.98971
2023-01-10T04:22:08.194Z,41.69684
2023-01-10T04:27:09.215Z,41.03921
2023-01-10T04:32:10.227Z,39.99603
2023-01-10T04:37:11.202Z,39.44595
2023-01-10T04:42:12.163Z,38.72247
2023-01-10T04:47:13.066Z,38.16354
2023-01-10T04:52:14.000Z,37.10529
2023-01-10T04:57:14.911Z,36.47756
2023-01-10T05:02:15.963Z,35.5404
2023-01-10T05:07:16.893Z,34.60167
2023-01-10T05:12:17.937Z,33.76267
2023-01-10T05:17:18.856Z,32.57104
2023-01-10T05:22:19.805Z,31.62405
2023-01-10T05:27:20.803Z,30.65801
2023-01-10T05:32:21.773Z,29.68875
2023-01-10T05:37:22.742Z,28.79958
2023-01-10T05:42:23.658Z,28.03925
2023-01-10T05:47:24.633Z,27.54226
2023-01-10T05:52:25.757Z,27.36971
2023-01-10T05:57:26.699Z,26.96687
2023-01-10T06:02:27.967Z,26.31384
2023-01-10T06:07:28.996Z,25.37764
2023-01-10T06:12:30.019Z,24.58148
2023-01-10T06:17:31.009Z,23.27572
2023-01-10T06:22:32.011Z,21.86331
2023-01-10T06:27:32.992Z,21.24868
2023-01-10T06:32:33.941Z,19.8309
2023-01-10T06:37:35.027Z,19.18642
2023-01-10T06:42:36.404Z,18.79001
2023-01-10T06:47:37.349Z,18.04557
2023-01-10T06:52:38.304Z,17.36059
2023-01-10T06:57:39.241Z,15.70673
2023-01-10T07:02:40.253Z,14.9514
2023-01-10T07:07:41.167Z,14.64756
2023-01-10T07:12:42.106Z,13.90067
2023-01-10T07:17:43.075Z,13.31499
2023-01-10T07:22:44.032Z,12.56196
2023-01-10T07:27:45.003Z,11.75675
2023-01-10T07:32:45.967Z,11.23187
2023-01-10T07:37:46.972Z,10.48704
2023-01-10T07:42:47.925Z,9.24391
2023-01-10T07:47:48.838Z,9.09016
2023-01-10T07:52:49.796Z,7.88994
2023-01-10T07:57:50.767Z,7.34039
2023-01-10T08:02:51.856Z,7.01225
2023-01-10T08:07:52.946Z,6.0766
2023-01-10T08:12:53.924Z,5.2273
2023-01-10T08:17:54.972Z,4.60468
2023-01-10T08:22:55.919Z,3.08471
2023-01-10T08:27:56.957Z,3.00194
2023-01-10T08:32:57.891Z,2.30419
2023-01-10T08:37:58.890Z,1.8183
2023-01-10T08:42:59.845Z,1.18461
2023-01-10T08:48:00.810Z,0.64432
2023-01-10T08:53:02.059Z,0.27488
2023-01-10T08:58:03.101Z,0.6758
2023-01-10T09:03:04.127Z,-0.42784
2023-01-10T09:08:05.178Z,-1.03526
2023-01-10T09:13:06.336Z,-1.27948
2023-01-10T09:18:07.301Z,-2.03887
2023-01-10T09:23:08.312Z,-2.61867
2023-01-10T09:28:09.281Z,-3.18201
2023-01-10T09:33:10.199Z,-2.97786
2023-01-10T09:38:11.251Z,-3.29393
2023-01-10T09:43:12.255Z,-4.7387
2023-01-10T09:48:13.189Z,-5.26776
2023-01-10T09:53:14.107Z,-4.93068
2023-01-10T09:58:15.006Z,-5.45153
2023-01-10T10:03:16.171Z,-5.64769
2023-01-10T10:08:17.144Z,-5.74904
2023-01-10T10:13:26.970Z,-5.89907
2023-01-10T10:18:28.688Z,-5.37471
2023-01-10T10:23:29.618Z,-6.46747
2023-01-10T10:28:30.547Z,-6.29904
2023-01-10T10:33:31.586Z,-6.05137
2023-01-10T10:38:32.546Z,-6.76594
2023-01-10T10:43:33.502Z,-7.8021
2023-01-10T10:48:34.485Z,-8.39345
2023-01-10T10:53:40.444Z,-8.56283
2023-01-10T10:58:41.376Z,-9.1228
2023-01-10T11:03:42.404Z,-9.7093
2023-01-10T11:08:43.937Z,-10.86733
2023-01-10T11:13:44.900Z,-10.75259
2023-01-10T11:18:45.893Z,-10.70422
2023-01-10T11:23:46.836Z,-9.78643
2023-01-10T11:28:47.800Z,-8.51061
2023-01-10T11:33:48.750Z,-8.74236
2023-01-10T11:38:49.699Z,-9.53909
2023-01-10T11:43:50.640Z,-9.05878
2023-01-10T11:49:05.041Z,-8.0804
2023-01-10T11:54:07.016Z,-9.63665
2023-01-10T11:59:08.081Z,-10.16211
2023-01-10T12:04:09.063Z,-10.75217
2023-01-10T12:09:10.032Z,-10.93641
2023-01-10T12:14:10.986Z,-10.52585
2023-01-10T12:19:11.931Z,-9.96504
2023-01-10T12:24:12.883Z,-9.99244
2023-01-10T12:29:13.901Z,-9.67245
2023-01-10T12:34:14.942Z,-9.90404
2023-01-10T12:39:15.883Z,-9.68417
2023-01-10T12:44:16.866Z,-10.67715
2023-01-10T12:49:17.805Z,-10.97649
2023-01-10T12:54:18.755Z,-11.7722
2023-01-10T12:59:32.444Z,-11.41527
2023-01-10T13:04:37.661Z,-13.13338
2023-01-10T13:09:38.830Z,-14.39716
2023-01-10T13:14:39.805Z,-14.37075
2023-01-10T13:19:40.745Z,-14.03924
2023-01-10T13:24:41.693Z,-14.59832
2023-01-10T13:29:42.715Z,-15.60334
2023-01-10T13:34:43.809Z,-16.28255
2023-01-10T13:39:44.782Z,-16.61486
2023-01-10T13:44:45.743Z,-16.01453
2023-01-10T13:49:46.694Z,-16.18357
2023-01-10T13:54:47.693Z,-17.08291
2023-01-10T13:59:48.700Z,-16.92399
2023-01-10T14:04:49.798Z,-17.18824
2023-01-10T14:09:50.742Z,-16.72655
2023-01-10T14:14:51.799Z,-17.08416
2023-01-10T14:19:52.746Z,-17.96201
2023-01-10T14:24:53.675Z,-17.96201
2023-01-10T14:29:54.724Z,-16.83601
2023-01-10T14:34:55.707Z,-17.23025
2023-01-10T14:39:56.630Z,-16.80401
2023-01-10T14:44:57.690Z,-16.96303
2023-01-10T14:49:58.638Z,-17.40306
2023-01-10T14:54:59.551Z,-17.64257
2023-01-10T15:00:00.508Z,-17.64358
2023-01-10T15:05:01.564Z,-17.18468
2023-01-10T15:10:02.535Z,-17.66447
2023-01-10T15:15:03.725Z,-17.77278
2023-01-10T15:20:04.663Z,-18.04615
2023-01-10T15:25:05.591Z,-18.5306
2023-01-10T15:30:06.539Z,-18.81399
2023-01-10T15:35:07.508Z,-19.53869
2023-01-10T15:40:08.463Z,-19.86328
2023-01-10T15:45:09.383Z,-19.77687
2023-01-10T15:50:10.322Z,-20.25709
2023-01-10T15:55:11.255Z,-20.52684
2023-01-10T16:00:12.147Z,-20.39091
2023-01-10T16:05:13.135Z,-20.29551
2023-01-10T16:10:14.137Z,-20.13644
2023-01-10T16:15:15.076Z,-20.65721
2023-01-10T16:20:16.007Z,-19.75874
2023-01-10T16:25:17.022Z,-19.29171
2023-01-10T16:30:18.104Z,-18.92203
2023-01-10T16:35:19.044Z,-19.3033
2023-01-10T16:40:19.969Z,-19.37791
2023-01-10T16:45:20.946Z,-18.78573
2023-01-10T16:50:21.874Z,-19.05583
2023-01-10T16:55:22.868Z,-19.97023
2023-01-10T17:00:23.808Z,-19.88284
2023-01-10T17:05:24.944Z,-19.87933
2023-01-10T17:10:25.892Z,-19.43875
2023-01-10T17:15:26.845Z,-19.40133
2023-01-10T17:20:27.897Z,-18.75942
2023-01-10T17:25:28.807Z,-18.65533
2023-01-10T17:30:29.814Z,-19.46237
2023-01-10T17:35:30.783Z,-19.79855
2023-01-10T17:40:31.716Z,-20.25652
2023-01-10T17:45:32.685Z,-20.10178
2023-01-10T17:50:33.686Z,-19.67581
2023-01-10T17:55:34.675Z,-19.75476
2023-01-10T18:00:36.315Z,-19.64159
2023-01-10T18:05:37.637Z,-19.92219
2023-01-10T18:10:38.596Z,-19.96064
2023-01-10T18:15:39.595Z,-19.83786
2023-01-10T18:20:40.767Z,-19.37183
2023-01-10T18:25:42.061Z,-19.43631
2023-01-10T18:30:43.236Z,-19.46381
2023-01-10T18:35:47.278Z,-19.34248
2023-01-10T18:40:48.636Z,-18.64293
2023-01-10T18:45:50.077Z,-18.61919
2023-01-10T18:50:51.143Z,-18.21329
2023-01-10T18:55:52.322Z,-17.80635
2023-01-10T19:00:53.661Z,-18.06559
2023-01-10T19:05:55.062Z,-17.72059
2023-01-10T19:11:12.972Z,-17.17102
2023-01-10T19:16:20.380Z,-17.17742
2023-01-10T19:21:21.427Z,-17.32158
2023-01-10T19:26:22.491Z,-16.47699
2023-01-10T19:31:23.701Z,-16.18653
2023-01-10T19:36:24.734Z,-16.10402
2023-01-10T19:41:25.671Z,-15.51329
2023-01-10T19:46:26.729Z,-14.97886
2023-01-10T19:51:27.711Z,-14.44429
2023-01-10T19:56:28.667Z,-14.24029
2023-01-10T20:01:29.988Z,-13.86928
2023-01-10T20:06:31.213Z,-13.74232
2023-01-10T20:11:32.282Z,-12.98555
2023-01-10T20:16:33.369Z,-12.91863
2023-01-10T20:21:34.361Z,-12.09793
2023-01-10T20:26:35.302Z,-12.17446
2023-01-10T20:31:36.609Z,-12.06097
2023-01-10T20:36:37.955Z,-11.84021
2023-01-10T20:41:40.085Z,-11.04004
2023-01-10T20:46:41.085Z,-10.92485
2023-01-10T20:51:41.995Z,-11.00863
2023-01-10T20:56:42.934Z,-10.52842
2023-01-10T21:01:43.913Z,-10.61587
2023-01-10T21:06:44.876Z,-10.49771
2023-01-10T21:11:59.878Z,-10.14565
2023-01-10T21:17:05.292Z,-9.8982
2023-01-10T21:22:06.254Z,-9.83751
2023-01-10T21:27:07.182Z,-9.6113
2023-01-10T21:32:08.125Z,-9.41105
2023-01-10T21:37:09.075Z,-9.33773
2023-01-10T21:42:10.009Z,-7.81372
2023-01-10T21:47:10.956Z,-7.29243
2023-01-10T21:52:11.883Z,-7.33955
2023-01-10T21:57:12.825Z,-6.45459
2023-01-10T22:02:13.796Z,-6.32948
2023-01-10T22:07:14.725Z,-6.05421
2023-01-10T22:12:15.654Z,-5.35345
2023-01-10T22:17:16.594Z,-4.47364
2023-01-10T22:22:17.543Z,-4.69827
2023-01-10T22:27:18.516Z,-5.1174
2023-01-10T22:32:19.436Z,-4.39739
2023-01-10T22:37:20.383Z,-3.44655
2023-01-10T22:42:21.309Z,-2.30771
2023-01-10T22:47:22.210Z,-2.45206
2023-01-10T22:52:23.207Z,-1.9694
2023-01-10T22:57:24.196Z,-1.4868
2023-01-10T23:02:25.224Z,-0.94201
2023-01-10T23:07:26.535Z,-0.39893
2023-01-10T23:12:27.537Z,0.48741
2023-01-10T23:17:28.490Z,1.75218
2023-01-10T23:22:29.486Z,1.58393
2023-01-10T23:27:30.474Z,1.72664
2023-01-10T23:32:31.447Z,2.081
2023-01-10T23:37:32.409Z,3.01005
2023-01-10T23:42:33.364Z,3.88452
2023-01-10T23:47:34.332Z,4.77784
2023-01-10T23:52:35.304Z,4.72738
2023-01-10T23:57:36.665Z,5.85997
